KORE

Orange Municipal Airport

Orange, Massachusetts, USA
METAR KORE 232252Z AUTO 33003KT 3/4SM BR VV003 01/01 A2954 RMK AO2 SLP008 T00110011
Observed Flight Rules
Jan-23 @ 22:52 UTC (35 minutes ago) Instrument Flight Rules
Wind Visibility Clouds Conditions
330° at 3 knots 3/4 miles
  • Vertical visibility at 300' AGL
  • Mist
Temperatures Readings
Current 1°C / 34°F
Dewpoint 1°C / 34°F
Humidity 100%
Altimeter 29.54" Hg
Pressure 1000.8 hPa
Elevation 164
METAR KORE 232252Z AUTO 33003KT 3/4SM BR VV003 01/01 A2954 RMK AO2 SLP008 T00110011
Observed Flight Rules
Jan-23 @ 22:52 UTC
(35 minutes ago)
LIFR
Wind Visibility
330° at 3 knots 3/4 miles
Clouds
  • Vertical visibility at 300' AGL
Conditions
  • Mist
Temperature Dewpoint
1°C / 34°F 1°C / 34°F
Humidity Altimeter Pressure
100% 29.54" Hg 1000.8 hPa